TimeEST,TemperatureF,Dew PointF,Humidity,Sea Level PressureIn,VisibilityMPH,Wind Direction,Wind SpeedMPH,Gust SpeedMPH,PrecipitationIn,Events,Conditions,WindDirDegrees,DateUTC
12:53 AM,35.1,34.0,96,29.82,4.0,North,4.6,-,N/A,,Overcast,360,2013-02-24 05:53:00
1:31 AM,35.6,33.8,93,29.82,2.5,North,3.5,-,N/A,,Overcast,360,2013-02-24 06:31:00
1:53 AM,35.1,34.0,96,29.82,2.0,Calm,Calm,-,N/A,,Overcast,0,2013-02-24 06:53:00
2:04 AM,35.6,35.6,100,29.82,1.8,Calm,Calm,-,0.00,,Overcast,0,2013-02-24 07:04:00
2:10 AM,35.6,35.6,100,29.82,2.0,Calm,Calm,-,0.01,,Overcast,0,2013-02-24 07:10:00
2:36 AM,35.6,35.6,100,29.82,3.0,Calm,Calm,-,0.01,,Overcast,0,2013-02-24 07:36:00
2:53 AM,35.1,35.1,100,29.80,3.0,Calm,Calm,-,0.01,,Overcast,0,2013-02-24 07:53:00
3:53 AM,35.1,34.0,96,29.81,6.0,Calm,Calm,-,N/A,,Overcast,0,2013-02-24 08:53:00
4:46 AM,35.6,33.8,93,29.79,2.5,NNE,4.6,-,N/A,,Overcast,30,2013-02-24 09:46:00
4:53 AM,35.1,34.0,96,29.79,3.0,NNE,5.8,-,N/A,,Overcast,30,2013-02-24 09:53:00
5:53 AM,35.1,34.0,96,29.79,8.0,Calm,Calm,-,N/A,,Overcast,0,2013-02-24 10:53:00
6:53 AM,35.1,34.0,96,29.78,6.0,Calm,Calm,-,N/A,,Overcast,0,2013-02-24 11:53:00
7:53 AM,35.1,34.0,96,29.78,6.0,NW,6.9,-,N/A,,Overcast,320,2013-02-24 12:53:00
8:53 AM,35.1,34.0,96,29.78,10.0,NNW,5.8,-,N/A,,Overcast,340,2013-02-24 13:53:00
9:53 AM,36.0,35.1,97,29.77,4.0,NNW,6.9,-,N/A,,Overcast,340,2013-02-24 14:53:00
10:53 AM,37.9,35.1,89,29.77,9.0,North,8.1,-,N/A,,Overcast,10,2013-02-24 15:53:00
11:53 AM,39.0,35.1,86,29.77,10.0,NNE,6.9,-,N/A,,Overcast,20,2013-02-24 16:53:00
12:53 PM,39.9,35.1,83,29.75,10.0,NNW,5.8,-,N/A,,Overcast,330,2013-02-24 17:53:00
1:53 PM,43.0,35.1,74,29.74,10.0,NNW,8.1,-,N/A,,Overcast,330,2013-02-24 18:53:00
2:34 PM,42.8,33.8,70,29.75,10.0,NNW,5.8,-,N/A,,Overcast,330,2013-02-24 19:34:00
2:53 PM,41.0,34.0,76,29.75,10.0,NW,4.6,-,N/A,,Overcast,320,2013-02-24 19:53:00
3:53 PM,39.9,28.9,65,29.76,10.0,NW,9.2,-,N/A,,Overcast,310,2013-02-24 20:53:00
4:53 PM,39.0,27.0,62,29.80,10.0,NNW,10.4,-,N/A,,Overcast,330,2013-02-24 21:53:00
5:53 PM,37.0,23.0,57,29.84,10.0,NNW,13.8,-,N/A,,Overcast,330,2013-02-24 22:53:00
6:53 PM,33.1,28.9,85,29.88,3.0,WNW,9.2,-,0.00,Snow,Light Snow,290,2013-02-24 23:53:00
7:00 PM,33.8,28.4,81,29.89,2.0,NW,11.5,-,0.00,Snow,Light Snow,320,2013-02-25 00:00:00
7:07 PM,33.8,28.4,81,29.90,3.0,NW,8.1,-,0.00,Snow,Light Snow,310,2013-02-25 00:07:00
7:53 PM,34.0,26.1,73,29.91,3.0,NW,6.9,-,0.00,,Haze,310,2013-02-25 00:53:00
8:53 PM,33.1,27.0,78,29.93,10.0,WSW,3.5,-,N/A,,Overcast,250,2013-02-25 01:53:00
9:53 PM,32.0,28.0,85,29.94,8.0,Calm,Calm,-,N/A,,Overcast,0,2013-02-25 02:53:00
10:53 PM,33.1,23.0,66,29.94,10.0,North,3.5,-,N/A,,Clear,350,2013-02-25 03:53:00
11:53 PM,28.9,24.1,82,29.96,10.0,Calm,Calm,-,N/A,,Clear,0,2013-02-25 04:53:00